Airfield :
LOGIN :

Register | Disclaimer

   EN    FR    IT 

 










Legend :    VFR   Marginal VFR   IFR   Intensive IFR   Very Intensive IFR
Visi :
Ceiling :
>= 8 km
>= 3000ft
5 to 8 km
1000 to 3000 ft
1500m to 5 km
500 to 1000 ft
800 to 1500m
200 to 500 ft
< 800m
< 200 ft
Symbols :   Thunderstorms  Fog  Heavy snow  Heavy precipitations  Wind > 20 kt
SIGMETs :     Misc.  Thunderstorms  Icing  Turbulence  Mountain Waves  Volcanic Ashes






- Airport Elevation : 856 ft
- IATA code : VGO


LEVX - Vigo Peinador

CURRENT METAR :
  • 161930Z 21012KT 150V240 6000 -DZ SCT010 BKN015 14/13 Q1023 TEMPO 0300 DZRA VV001

EXPIRED METARs :
  • 161900Z 21018G28KT 160V250 5000 -DZRA SCT009 BKN014 15/14 Q1023 TEMPO 0300 DZRA VV001
  • 161830Z 21014KT 2500 0600E -DZRA BCFG BKN011 BKN017 14/14 Q1022 TEMPO 0300 DZRA VV001
  • 161800Z 21015KT 190V250 3000 0500E -DZRA BCFG FEW003 BKN012 BKN020 14/13 Q1022 TEMPO 0800
  • 161742Z 19012G25KT 150V230 2000 0500E R01/1100U -DZRA BCFG VV002 14/14 Q1022 TEMPO 0800
  • 161700Z 19012KT 2000 0500SE -DZRA BCFG VV001 14/13 Q1022 TEMPO 1000

TAF TAF LEVX
Valid from the 16 at 18:00 until the 17 at 18:00 UTC


161700Z 1618/1718 20012KT 8000 SCT010 BKN015 TX13/1618Z TN08/1706Z
TEMPO 1618/1621 20015G25KT
TEMPO 1618/1706 3000 RA BKN009
TEMPO 1618/1706 1500 DZ BCFG BKN005
TEMPO 1618/1704 0350 RADZ BCFG VV001
BECMG 1622/1702 29009KT



MET'MAP, your aeronautical weather chart ! - Copyright ORBIFLY December 2007 - Disclaimer

ORBIFLY MET'MAP TEAM :

Programming & Development : Alexandra Zaïnal
Concept & original design : Baudouin d'Aumeries
Assistance for programming : Marc-Olivier Méhu
Technical & hardware support : Manuel Goepfert

Contact : metmap@orbifly.com




SOURCES & CREDITS :

   NOAA